createdAt,value
2023-05-13T00:02:11.924Z,38.65
2023-05-13T00:04:38.681Z,38.49
2023-05-13T00:07:05.652Z,39.03
2023-05-13T00:09:32.377Z,39.05
2023-05-13T00:11:59.299Z,39.15
2023-05-13T00:14:26.018Z,39.21
2023-05-13T00:16:52.753Z,39.31
2023-05-13T00:19:19.524Z,39.12
2023-05-13T00:21:46.279Z,39.20
2023-05-13T00:24:12.989Z,39.29
2023-05-13T00:26:39.637Z,39.46
2023-05-13T00:29:06.362Z,39.37
2023-05-13T00:31:33.122Z,39.56
2023-05-13T00:33:59.869Z,39.45
2023-05-13T00:36:27.527Z,39.68
2023-05-13T00:38:54.266Z,39.64
2023-05-13T00:41:22.783Z,40.07
2023-05-13T00:43:49.532Z,39.87
2023-05-13T00:46:16.352Z,40.08
2023-05-13T00:48:43.746Z,40.04
2023-05-13T00:51:10.454Z,40.20
2023-05-13T00:53:39.233Z,39.99
2023-05-13T00:56:08.938Z,40.30
2023-05-13T00:58:35.715Z,40.39
2023-05-13T01:01:45.267Z,40.16
2023-05-13T01:04:27.440Z,40.03
2023-05-13T01:07:12.205Z,40.04
2023-05-13T01:10:08.279Z,39.89
2023-05-13T01:12:41.632Z,40.18
2023-05-13T01:15:15.947Z,40.16
2023-05-13T01:17:51.725Z,40.60
2023-05-13T01:20:22.618Z,40.92
2023-05-13T01:22:50.041Z,41.02
2023-05-13T01:25:16.729Z,41.25
2023-05-13T01:27:43.717Z,41.55
2023-05-13T01:30:11.425Z,41.39
2023-05-13T01:32:38.868Z,41.56
2023-05-13T01:35:07.600Z,41.70
2023-05-13T01:37:35.243Z,41.58
2023-05-13T01:40:03.382Z,41.95
2023-05-13T01:42:37.198Z,41.78
2023-05-13T01:45:04.365Z,41.49
2023-05-13T01:47:31.120Z,41.84
2023-05-13T01:49:57.789Z,42.19
2023-05-13T01:52:24.486Z,42.24
2023-05-13T01:54:51.165Z,42.16
2023-05-13T01:57:17.942Z,42.24
2023-05-13T01:59:44.612Z,42.53
2023-05-13T02:02:11.335Z,42.49
2023-05-13T02:04:38.090Z,43.04
2023-05-13T02:07:05.004Z,42.71
2023-05-13T02:09:31.785Z,43.08
2023-05-13T02:11:58.666Z,42.77
2023-05-13T02:14:25.332Z,43.25
2023-05-13T02:16:52.075Z,43.41
2023-05-13T02:19:19.832Z,43.24
2023-05-13T02:21:46.856Z,43.55
2023-05-13T02:24:14.079Z,43.31
2023-05-13T02:26:41.772Z,43.63
2023-05-13T02:29:08.620Z,44.17
2023-05-13T02:31:36.827Z,44.19
2023-05-13T02:34:03.799Z,43.78
2023-05-13T02:36:30.550Z,44.20
2023-05-13T02:38:57.605Z,44.40
2023-05-13T02:41:24.271Z,44.02
2023-05-13T02:43:50.984Z,44.48
2023-05-13T02:46:17.692Z,44.40
2023-05-13T02:48:44.365Z,44.43
2023-05-13T02:51:11.003Z,44.40
2023-05-13T02:53:37.652Z,44.71
2023-05-13T02:56:04.644Z,44.66
2023-05-13T02:58:31.327Z,44.56
2023-05-13T03:00:58.063Z,44.99
2023-05-13T03:03:25.014Z,44.88
2023-05-13T03:05:51.888Z,45.55
2023-05-13T03:08:18.619Z,45.43
2023-05-13T03:10:45.343Z,45.55
2023-05-13T03:13:12.016Z,45.08
2023-05-13T03:15:38.721Z,45.32
2023-05-13T03:18:05.641Z,45.45
2023-05-13T03:20:32.351Z,45.81
2023-05-13T03:22:59.059Z,45.60
2023-05-13T03:25:25.689Z,45.68
2023-05-13T03:27:52.355Z,45.92
2023-05-13T03:30:19.258Z,45.88
2023-05-13T03:32:46.087Z,45.89
2023-05-13T03:35:12.800Z,46.03
2023-05-13T03:37:39.615Z,46.30
2023-05-13T03:40:06.967Z,45.99
2023-05-13T03:42:33.739Z,46.17
2023-05-13T03:45:00.406Z,45.87
2023-05-13T03:47:27.126Z,46.06
2023-05-13T03:49:53.829Z,46.11
2023-05-13T03:52:20.494Z,46.30
2023-05-13T03:54:47.154Z,46.29
2023-05-13T03:57:13.901Z,46.11
2023-05-13T03:59:41.977Z,46.11
2023-05-13T04:02:08.734Z,46.30
2023-05-13T04:04:35.440Z,46.38
2023-05-13T04:07:02.114Z,46.31
2023-05-13T04:09:28.741Z,46.41
2023-05-13T04:11:55.390Z,46.08
2023-05-13T04:14:22.163Z,46.10
2023-05-13T04:16:49.085Z,46.22
2023-05-13T04:19:15.835Z,46.51
2023-05-13T04:21:42.501Z,46.57
2023-05-13T04:24:09.175Z,46.62
2023-05-13T04:26:38.236Z,46.63
2023-05-13T04:29:04.999Z,46.64
2023-05-13T04:31:31.865Z,46.49
2023-05-13T04:33:58.538Z,46.11
2023-05-13T04:36:25.263Z,46.33
2023-05-13T04:38:51.906Z,46.19
2023-05-13T04:41:18.561Z,46.39
2023-05-13T04:43:45.446Z,45.96
2023-05-13T04:46:12.147Z,46.24
2023-05-13T04:48:38.828Z,46.01
2023-05-13T04:51:06.018Z,45.88
2023-05-13T04:53:33.179Z,45.58
2023-05-13T04:56:01.096Z,45.97
2023-05-13T04:58:28.353Z,45.67
2023-05-13T05:00:55.071Z,45.43
2023-05-13T05:03:22.189Z,45.70
2023-05-13T05:05:48.986Z,45.52
2023-05-13T05:08:16.957Z,45.51
2023-05-13T05:10:43.608Z,45.17
2023-05-13T05:13:11.236Z,45.31
2023-05-13T05:15:37.938Z,45.20
2023-05-13T05:18:06.696Z,44.96
2023-05-13T05:20:33.517Z,44.99
2023-05-13T05:23:00.289Z,44.41
2023-05-13T05:25:27.139Z,44.47
2023-05-13T05:27:53.825Z,44.33
2023-05-13T05:30:20.938Z,44.21
2023-05-13T05:32:47.914Z,43.95
2023-05-13T05:35:16.320Z,43.69
2023-05-13T05:37:42.999Z,43.67
2023-05-13T05:40:10.150Z,43.32
2023-05-13T05:42:36.873Z,43.36
2023-05-13T05:45:03.736Z,42.98
2023-05-13T05:47:30.438Z,42.80
2023-05-13T05:49:57.102Z,42.70
2023-05-13T05:52:23.781Z,42.56
2023-05-13T05:54:50.475Z,42.37
2023-05-13T05:57:17.199Z,42.08
2023-05-13T05:59:43.912Z,41.96
2023-05-13T06:02:10.745Z,41.72
2023-05-13T06:04:37.515Z,41.69
2023-05-13T06:07:04.253Z,41.37
2023-05-13T06:09:31.130Z,41.28
2023-05-13T06:11:57.781Z,40.88
2023-05-13T06:14:24.488Z,40.96
2023-05-13T06:16:51.709Z,40.60
2023-05-13T06:19:19.122Z,40.40
2023-05-13T06:21:45.789Z,40.26
2023-05-13T06:24:12.529Z,39.80
2023-05-13T06:26:39.218Z,39.72
2023-05-13T06:29:05.917Z,39.23
2023-05-13T06:31:32.628Z,39.17
2023-05-13T06:33:59.286Z,39.09
2023-05-13T06:36:26.487Z,38.93
2023-05-13T06:38:54.059Z,38.97
2023-05-13T06:41:20.809Z,38.61
2023-05-13T06:43:48.918Z,38.68
2023-05-13T06:46:15.876Z,38.52
2023-05-13T06:48:42.552Z,38.37
2023-05-13T06:51:09.304Z,38.40
2023-05-13T06:53:36.061Z,38.24
2023-05-13T06:56:02.855Z,38.16
2023-05-13T06:58:29.516Z,38.13
2023-05-13T07:00:56.337Z,38.07
2023-05-13T07:03:23.498Z,37.89
2023-05-13T07:05:50.178Z,37.72
2023-05-13T07:08:18.178Z,37.62
2023-05-13T07:10:45.187Z,37.28
2023-05-13T07:13:12.027Z,37.20
2023-05-13T07:15:38.714Z,37.15
2023-05-13T07:18:05.826Z,36.86
2023-05-13T07:20:32.704Z,36.73
2023-05-13T07:22:59.410Z,36.70
2023-05-13T07:25:26.098Z,36.26
2023-05-13T07:27:52.795Z,36.12
2023-05-13T07:30:19.711Z,36.03
2023-05-13T07:32:46.465Z,35.66
2023-05-13T07:35:13.868Z,35.56
2023-05-13T07:37:40.558Z,35.36
2023-05-13T07:40:08.073Z,35.39
2023-05-13T07:42:35.028Z,34.83
2023-05-13T07:45:01.789Z,35.11
2023-05-13T07:47:29.306Z,34.86
2023-05-13T07:49:56.118Z,34.62
2023-05-13T07:52:23.499Z,34.50
2023-05-13T07:54:50.152Z,34.44
2023-05-13T07:57:16.919Z,34.29
2023-05-13T07:59:44.795Z,34.20
2023-05-13T08:02:12.601Z,34.11
2023-05-13T08:04:39.452Z,33.83
2023-05-13T08:07:06.273Z,33.55
2023-05-13T08:09:32.979Z,33.45
2023-05-13T08:11:59.613Z,33.40
2023-05-13T08:14:26.264Z,33.31
2023-05-13T08:16:53.117Z,33.08
2023-05-13T08:19:20.258Z,33.04
2023-05-13T08:21:46.979Z,32.81
2023-05-13T08:24:13.644Z,32.65
2023-05-13T08:26:40.317Z,32.62
2023-05-13T08:29:07.323Z,32.30
2023-05-13T08:31:34.064Z,32.15
2023-05-13T08:34:00.835Z,32.09
2023-05-13T08:36:27.548Z,31.91
2023-05-13T08:38:54.226Z,31.75
2023-05-13T08:41:22.920Z,31.65
2023-05-13T08:43:50.559Z,31.63
2023-05-13T08:46:18.592Z,31.53
2023-05-13T08:48:45.850Z,31.37
2023-05-13T08:51:12.895Z,30.93
2023-05-13T08:53:40.863Z,30.72
2023-05-13T08:56:09.753Z,30.96
2023-05-13T08:58:36.685Z,30.60
2023-05-13T09:01:04.277Z,30.53
2023-05-13T09:03:31.697Z,30.62
2023-05-13T09:06:03.394Z,30.43
2023-05-13T09:08:30.354Z,30.26
2023-05-13T09:10:57.943Z,30.11
2023-05-13T09:13:24.601Z,29.89
2023-05-13T09:15:51.999Z,29.86
2023-05-13T09:18:19.544Z,29.71
2023-05-13T09:20:46.558Z,29.33
2023-05-13T09:23:13.872Z,29.30
2023-05-13T09:25:41.629Z,29.27
2023-05-13T09:28:08.481Z,29.14
2023-05-13T09:30:45.596Z,28.80
2023-05-13T09:33:15.591Z,28.64
2023-05-13T09:35:52.946Z,29.02
2023-05-13T09:38:29.114Z,28.78
2023-05-13T09:40:58.580Z,28.70
2023-05-13T09:43:32.255Z,28.64
2023-05-13T09:46:03.577Z,28.37
2023-05-13T09:48:33.056Z,28.28
2023-05-13T09:50:59.954Z,28.17
2023-05-13T09:53:27.835Z,28.14
2023-05-13T09:55:56.599Z,27.82
2023-05-13T09:58:24.665Z,27.90
2023-05-13T10:00:52.573Z,27.74
2023-05-13T10:03:19.519Z,27.81
2023-05-13T10:05:48.555Z,27.56
2023-05-13T10:08:17.078Z,27.08
2023-05-13T10:10:46.132Z,27.20
2023-05-13T10:13:16.176Z,27.09
2023-05-13T10:15:51.162Z,27.09
2023-05-13T10:18:19.143Z,26.69
2023-05-13T10:20:46.967Z,26.98
2023-05-13T10:23:14.002Z,26.87
2023-05-13T10:25:43.367Z,26.68
2023-05-13T10:28:10.857Z,26.71
2023-05-13T10:30:39.063Z,26.55
2023-05-13T10:33:06.150Z,26.03
2023-05-13T10:35:38.600Z,26.06
2023-05-13T10:38:33.505Z,26.57
2023-05-13T10:41:18.629Z,26.16
2023-05-13T10:43:45.370Z,26.14
2023-05-13T10:46:13.579Z,25.80
2023-05-13T10:48:43.558Z,25.87
2023-05-13T10:51:14.909Z,25.59
2023-05-13T10:53:50.200Z,25.54
2023-05-13T10:56:20.321Z,25.39
2023-05-13T10:59:04.480Z,25.55
2023-05-13T11:01:44.071Z,25.12
2023-05-13T11:04:18.553Z,25.48
2023-05-13T11:06:46.552Z,25.26
2023-05-13T11:09:31.443Z,25.31
2023-05-13T11:11:59.804Z,25.17
2023-05-13T11:14:28.122Z,25.15
2023-05-13T11:17:08.518Z,25.20
2023-05-13T11:19:37.365Z,25.12
2023-05-13T11:22:20.367Z,24.76
2023-05-13T11:25:08.434Z,24.92
2023-05-13T11:27:40.515Z,25.29
2023-05-13T11:30:20.985Z,25.10
2023-05-13T11:33:01.781Z,24.93
2023-05-13T11:35:33.099Z,24.78
2023-05-13T11:38:01.640Z,24.81
2023-05-13T11:40:36.489Z,24.65
2023-05-13T11:43:06.396Z,24.45
2023-05-13T11:45:34.038Z,24.27
2023-05-13T11:48:18.323Z,24.21
2023-05-13T11:50:45.024Z,24.31
2023-05-13T11:53:11.701Z,24.19
2023-05-13T11:55:38.410Z,24.14
2023-05-13T11:58:05.055Z,23.94
2023-05-13T12:00:33.463Z,23.50
2023-05-13T12:03:01.705Z,23.62
2023-05-13T12:05:28.825Z,23.49
2023-05-13T12:07:58.940Z,23.63
2023-05-13T12:10:26.614Z,23.43
2023-05-13T12:12:53.788Z,23.18
2023-05-13T12:15:22.234Z,23.40
2023-05-13T12:17:49.800Z,23.65
2023-05-13T12:20:17.780Z,23.52
2023-05-13T12:22:44.361Z,23.27
2023-05-13T12:25:48.291Z,23.27
2023-05-13T12:28:21.149Z,23.33
2023-05-13T12:31:02.131Z,23.39
2023-05-13T12:33:30.238Z,23.24
2023-05-13T12:36:26.165Z,23.04
2023-05-13T12:39:00.199Z,22.84
2023-05-13T12:41:32.474Z,23.14
2023-05-13T12:44:01.213Z,22.51
2023-05-13T12:46:28.794Z,21.91
2023-05-13T12:48:57.611Z,21.91
2023-05-13T12:51:24.881Z,22.48
2023-05-13T12:53:54.193Z,22.01
2023-05-13T12:56:22.584Z,21.96
2023-05-13T12:58:56.026Z,21.62
2023-05-13T13:01:22.990Z,21.14
2023-05-13T13:03:50.077Z,21.37
2023-05-13T13:06:17.892Z,21.00
2023-05-13T13:08:44.695Z,20.94
2023-05-13T13:11:14.989Z,20.91
2023-05-13T13:13:41.803Z,20.95
2023-05-13T13:16:09.477Z,20.95
2023-05-13T13:18:36.501Z,21.17
2023-05-13T13:21:03.510Z,21.51
2023-05-13T13:23:30.234Z,21.36
2023-05-13T13:25:59.268Z,21.18
2023-05-13T13:28:26.704Z,21.08
2023-05-13T13:30:53.828Z,21.04
2023-05-13T13:33:21.146Z,20.45
2023-05-13T13:35:49.566Z,20.83
2023-05-13T13:38:16.293Z,20.57
2023-05-13T13:40:42.955Z,20.38
2023-05-13T13:43:09.694Z,20.53
2023-05-13T13:45:36.725Z,20.58
2023-05-13T13:48:03.706Z,20.52
2023-05-13T13:50:30.546Z,19.85
2023-05-13T13:52:57.303Z,20.15
2023-05-13T13:55:24.671Z,20.18
2023-05-13T13:57:52.236Z,19.87
2023-05-13T14:00:19.347Z,19.96
2023-05-13T14:02:46.296Z,19.93
2023-05-13T14:05:13.617Z,19.63
2023-05-13T14:07:40.588Z,19.48
2023-05-13T14:10:08.158Z,19.61
2023-05-13T14:12:38.362Z,19.50
2023-05-13T14:15:05.827Z,19.49
2023-05-13T14:17:33.405Z,19.45
2023-05-13T14:20:00.236Z,19.51
2023-05-13T14:22:26.947Z,19.31
2023-05-13T14:24:53.720Z,19.08
2023-05-13T14:27:21.776Z,19.24
2023-05-13T14:29:49.168Z,18.92
2023-05-13T14:32:16.287Z,18.88
2023-05-13T14:34:43.090Z,19.05
2023-05-13T14:37:09.916Z,18.67
2023-05-13T14:39:37.049Z,18.76
2023-05-13T14:42:04.109Z,18.72
2023-05-13T14:44:30.820Z,18.75
2023-05-13T14:46:57.593Z,18.89
2023-05-13T14:49:24.357Z,18.95
2023-05-13T14:51:51.170Z,19.01
2023-05-13T14:54:18.006Z,18.99
2023-05-13T14:56:45.175Z,18.88
2023-05-13T14:59:12.026Z,18.98
2023-05-13T15:01:38.846Z,19.09
2023-05-13T15:04:06.027Z,18.81
2023-05-13T15:06:33.269Z,18.76
2023-05-13T15:09:00.005Z,18.80
2023-05-13T15:11:28.388Z,18.66
2023-05-13T15:13:55.561Z,18.37
2023-05-13T15:16:22.576Z,18.53
2023-05-13T15:18:50.357Z,18.47
2023-05-13T15:21:17.655Z,18.71
2023-05-13T15:23:44.361Z,18.83
2023-05-13T15:26:11.080Z,18.63
2023-05-13T15:28:38.001Z,18.40
2023-05-13T15:31:05.594Z,18.46
2023-05-13T15:33:35.392Z,18.62
2023-05-13T15:36:02.371Z,18.52
2023-05-13T15:38:29.056Z,18.43
2023-05-13T15:40:55.734Z,18.38
2023-05-13T15:43:22.411Z,18.28
2023-05-13T15:45:50.328Z,18.64
2023-05-13T15:48:17.768Z,18.41
2023-05-13T15:50:44.791Z,18.55
2023-05-13T15:53:11.570Z,18.50
2023-05-13T15:55:39.564Z,18.83
2023-05-13T15:58:07.160Z,18.52
2023-05-13T16:00:34.167Z,18.94
2023-05-13T16:03:01.444Z,18.69
2023-05-13T16:05:28.423Z,19.21
2023-05-13T16:07:57.240Z,18.84
2023-05-13T16:10:24.315Z,18.97
2023-05-13T16:12:51.643Z,19.20
2023-05-13T16:15:18.312Z,19.40
2023-05-13T16:17:45.110Z,19.54
2023-05-13T16:20:12.484Z,19.39
2023-05-13T16:22:39.233Z,19.61
2023-05-13T16:25:08.879Z,19.44
2023-05-13T16:27:36.723Z,19.93
2023-05-13T16:30:05.281Z,20.18
2023-05-13T16:32:32.134Z,19.96
2023-05-13T16:34:58.978Z,20.22
2023-05-13T16:37:25.666Z,20.00
2023-05-13T16:39:52.309Z,20.35
2023-05-13T16:42:21.858Z,19.99
2023-05-13T16:44:48.531Z,20.25
2023-05-13T16:47:15.200Z,20.50
2023-05-13T16:49:42.705Z,20.64
2023-05-13T16:52:09.446Z,20.48
2023-05-13T16:54:36.095Z,20.66
2023-05-13T16:57:02.806Z,20.75
2023-05-13T16:59:29.607Z,20.93
2023-05-13T17:01:56.321Z,20.90
2023-05-13T17:04:23.146Z,21.02
2023-05-13T17:06:50.036Z,20.94
2023-05-13T17:09:16.739Z,20.94
2023-05-13T17:11:43.577Z,21.09
2023-05-13T17:14:10.569Z,21.24
2023-05-13T17:16:38.462Z,21.10
2023-05-13T17:19:05.270Z,21.28
2023-05-13T17:21:31.999Z,21.56
2023-05-13T17:23:58.979Z,21.68
2023-05-13T17:26:26.470Z,21.83
2023-05-13T17:28:53.352Z,22.07
2023-05-13T17:31:20.215Z,22.10
2023-05-13T17:33:46.954Z,22.32
2023-05-13T17:36:13.870Z,22.44
2023-05-13T17:38:40.505Z,22.43
2023-05-13T17:41:07.164Z,22.50
2023-05-13T17:43:33.837Z,22.38
2023-05-13T17:46:00.728Z,22.35
2023-05-13T17:48:27.450Z,22.48
2023-05-13T17:50:54.604Z,22.71
2023-05-13T17:53:21.439Z,22.44
2023-05-13T17:55:48.764Z,22.62
2023-05-13T17:58:16.333Z,22.67
2023-05-13T18:00:43.228Z,22.62
2023-05-13T18:03:09.956Z,22.67
2023-05-13T18:05:36.828Z,22.74
2023-05-13T18:08:03.655Z,23.05
2023-05-13T18:10:30.515Z,23.18
2023-05-13T18:12:57.341Z,23.17
2023-05-13T18:15:24.006Z,23.16
2023-05-13T18:17:50.801Z,23.31
2023-05-13T18:20:18.408Z,23.48
2023-05-13T18:22:45.153Z,23.59
2023-05-13T18:25:11.873Z,24.06
2023-05-13T18:27:38.752Z,24.22
2023-05-13T18:30:06.970Z,24.21
2023-05-13T18:32:33.636Z,24.38
2023-05-13T18:35:00.320Z,24.49
2023-05-13T18:37:27.040Z,24.51
2023-05-13T18:39:53.691Z,24.52
2023-05-13T18:42:21.024Z,24.60
2023-05-13T18:44:47.705Z,25.10
2023-05-13T18:47:14.379Z,25.38
2023-05-13T18:49:41.078Z,25.66
2023-05-13T18:52:07.867Z,26.03
2023-05-13T18:54:35.028Z,26.28
2023-05-13T18:57:01.953Z,26.28
2023-05-13T18:59:28.633Z,26.52
2023-05-13T19:01:55.758Z,26.92
2023-05-13T19:04:22.645Z,27.16
2023-05-13T19:06:49.436Z,27.27
2023-05-13T19:09:16.868Z,27.26
2023-05-13T19:11:44.556Z,27.53
2023-05-13T19:14:11.196Z,27.71
2023-05-13T19:16:37.944Z,27.93
2023-05-13T19:19:04.867Z,28.21
2023-05-13T19:21:31.727Z,28.23
2023-05-13T19:23:58.821Z,28.63
2023-05-13T19:26:25.652Z,28.53
2023-05-13T19:28:52.527Z,28.70
2023-05-13T19:31:19.270Z,28.64
2023-05-13T19:33:46.440Z,28.73
2023-05-13T19:36:13.418Z,29.05
2023-05-13T19:38:40.157Z,29.22
2023-05-13T19:41:06.816Z,29.25
2023-05-13T19:43:33.445Z,29.45
2023-05-13T19:46:00.375Z,29.49
2023-05-13T19:48:29.653Z,29.71
2023-05-13T19:50:57.990Z,29.93
2023-05-13T19:53:24.803Z,30.12
2023-05-13T19:55:51.522Z,30.22
2023-05-13T19:58:18.208Z,30.61
2023-05-13T20:00:45.141Z,30.99
2023-05-13T20:03:12.156Z,31.37
2023-05-13T20:05:41.001Z,31.26
2023-05-13T20:08:07.860Z,31.36
2023-05-13T20:10:36.818Z,31.51
2023-05-13T20:13:04.868Z,31.66
2023-05-13T20:15:32.159Z,31.98
2023-05-13T20:17:59.091Z,31.99
2023-05-13T20:20:25.904Z,32.13
2023-05-13T20:22:52.689Z,32.24
2023-05-13T20:25:19.539Z,32.41
2023-05-13T20:27:46.196Z,32.55
2023-05-13T20:30:13.880Z,32.66
2023-05-13T20:32:40.647Z,32.98
2023-05-13T20:35:08.757Z,33.18
2023-05-13T20:37:35.664Z,33.36
2023-05-13T20:40:02.585Z,33.76
2023-05-13T20:42:29.216Z,33.64
2023-05-13T20:44:56.018Z,33.89
2023-05-13T20:47:22.750Z,33.97
2023-05-13T20:49:49.485Z,34.36
2023-05-13T20:52:16.368Z,34.39
2023-05-13T20:54:43.121Z,34.57
2023-05-13T20:57:09.782Z,34.66
2023-05-13T20:59:36.487Z,34.86
2023-05-13T21:02:03.331Z,34.80
2023-05-13T21:04:30.020Z,35.18
2023-05-13T21:06:57.383Z,35.55
2023-05-13T21:09:24.021Z,35.61
2023-05-13T21:11:50.702Z,35.70
2023-05-13T21:14:17.357Z,35.79
2023-05-13T21:16:44.054Z,36.05
2023-05-13T21:19:19.807Z,36.20
2023-05-13T21:21:46.433Z,36.04
2023-05-13T21:24:14.202Z,36.21
2023-05-13T21:26:40.850Z,36.43
2023-05-13T21:29:07.557Z,36.48
2023-05-13T21:31:34.306Z,36.67
2023-05-13T21:34:01.053Z,36.94
2023-05-13T21:36:27.794Z,37.03
2023-05-13T21:38:54.543Z,37.25
2023-05-13T21:41:22.126Z,37.35
2023-05-13T21:43:48.781Z,37.47
2023-05-13T21:46:15.526Z,37.79
2023-05-13T21:48:42.208Z,38.03
2023-05-13T21:51:08.914Z,37.97
2023-05-13T21:53:35.750Z,38.18
2023-05-13T21:56:03.106Z,38.31
2023-05-13T21:58:29.762Z,38.32
2023-05-13T22:00:56.764Z,38.82
2023-05-13T22:03:23.542Z,38.68
2023-05-13T22:05:50.315Z,38.80
2023-05-13T22:08:17.043Z,38.43
2023-05-13T22:10:43.776Z,38.65
2023-05-13T22:13:10.666Z,39.23
2023-05-13T22:15:37.376Z,39.28
2023-05-13T22:18:04.247Z,38.90
2023-05-13T22:20:31.044Z,38.93
2023-05-13T22:22:57.741Z,39.47
2023-05-13T22:25:24.419Z,39.16
2023-05-13T22:27:51.184Z,39.66
2023-05-13T22:30:18.239Z,39.37
2023-05-13T22:32:44.952Z,39.33
2023-05-13T22:35:11.612Z,39.69
2023-05-13T22:37:38.292Z,40.07
2023-05-13T22:40:06.003Z,40.03
2023-05-13T22:42:32.676Z,40.06
2023-05-13T22:44:59.363Z,40.28
2023-05-13T22:47:26.352Z,39.99
2023-05-13T22:49:53.057Z,40.32
2023-05-13T22:52:19.954Z,40.36
2023-05-13T22:54:46.598Z,40.72
2023-05-13T22:57:13.262Z,40.57
2023-05-13T22:59:39.974Z,40.94
2023-05-13T23:02:06.767Z,41.13
2023-05-13T23:04:33.658Z,40.92
2023-05-13T23:07:00.478Z,41.06
2023-05-13T23:09:27.120Z,40.96
2023-05-13T23:11:53.745Z,41.38
2023-05-13T23:14:20.806Z,41.49
2023-05-13T23:16:47.651Z,41.50
2023-05-13T23:19:14.427Z,41.88
2023-05-13T23:21:41.167Z,41.83
2023-05-13T23:24:07.913Z,42.13
2023-05-13T23:26:34.577Z,41.86
2023-05-13T23:29:01.233Z,42.11
2023-05-13T23:31:28.035Z,42.18
2023-05-13T23:33:54.727Z,42.53
2023-05-13T23:36:21.494Z,42.35
2023-05-13T23:38:48.318Z,42.58
2023-05-13T23:41:14.961Z,42.73
2023-05-13T23:43:41.652Z,42.82
2023-05-13T23:46:08.470Z,42.80
2023-05-13T23:48:35.210Z,43.00
2023-05-13T23:51:01.932Z,43.09
2023-05-13T23:53:28.585Z,42.84
2023-05-13T23:55:55.312Z,42.93
2023-05-13T23:58:21.946Z,43.29
